createdAt,value
2022-12-18T00:01:24.886Z,93.20
2022-12-18T00:03:53.404Z,93.20
2022-12-18T00:06:22.884Z,93.30
2022-12-18T00:08:49.930Z,93.40
2022-12-18T00:11:19.064Z,93.30
2022-12-18T00:13:45.980Z,93.40
2022-12-18T00:16:16.241Z,93.40
2022-12-18T00:18:43.257Z,93.40
2022-12-18T00:21:12.271Z,93.20
2022-12-18T00:23:40.515Z,93.30
2022-12-18T00:26:26.348Z,93.30
2022-12-18T00:28:53.893Z,93.40
2022-12-18T00:31:22.705Z,93.40
2022-12-18T00:33:50.073Z,93.30
2022-12-18T00:36:27.006Z,93.30
2022-12-18T00:38:55.387Z,93.40
2022-12-18T00:41:41.090Z,93.40
2022-12-18T00:44:10.412Z,93.30
2022-12-18T00:46:37.079Z,93.40
2022-12-18T00:49:03.935Z,93.20
2022-12-18T00:51:30.736Z,93.30
2022-12-18T00:53:57.422Z,93.40
2022-12-18T00:56:24.924Z,93.40
2022-12-18T00:58:51.782Z,93.40
2022-12-18T01:01:19.093Z,93.30
2022-12-18T01:03:48.620Z,93.30
2022-12-18T01:06:16.430Z,93.30
2022-12-18T01:08:43.687Z,93.30
2022-12-18T01:11:21.179Z,93.30
2022-12-18T01:13:48.525Z,93.30
2022-12-18T01:16:17.277Z,93.30
2022-12-18T01:18:44.291Z,93.20
2022-12-18T01:21:15.163Z,93.10
2022-12-18T01:23:42.514Z,93.20
2022-12-18T01:26:11.931Z,93.20
2022-12-18T01:28:38.787Z,93.20
2022-12-18T01:31:18.306Z,93.30
2022-12-18T01:33:48.839Z,93.20
2022-12-18T01:36:17.529Z,93.20
2022-12-18T01:38:44.350Z,93.30
2022-12-18T01:41:11.680Z,93.30
2022-12-18T01:43:58.939Z,93.20
2022-12-18T01:46:27.788Z,93.20
2022-12-18T01:49:02.514Z,93.20
2022-12-18T01:51:30.824Z,93.10
2022-12-18T01:53:59.980Z,93.00
2022-12-18T01:56:26.802Z,93.10
2022-12-18T01:59:02.025Z,93.10
2022-12-18T02:01:31.052Z,93.00
2022-12-18T02:04:14.695Z,93.10
2022-12-18T02:06:43.964Z,93.00
2022-12-18T02:09:23.207Z,93.00
2022-12-18T02:12:19.638Z,92.90
2022-12-18T02:15:25.040Z,92.80
2022-12-18T02:17:57.782Z,92.90
2022-12-18T02:20:34.441Z,92.90
2022-12-18T02:23:25.370Z,92.90
2022-12-18T02:26:11.271Z,92.90
2022-12-18T02:29:10.730Z,92.80
2022-12-18T02:31:41.745Z,92.80
2022-12-18T02:34:10.072Z,92.80
2022-12-18T02:36:40.028Z,92.90
2022-12-18T02:39:09.973Z,92.90
2022-12-18T02:41:37.603Z,92.80
2022-12-18T02:44:09.882Z,92.80
2022-12-18T02:46:42.572Z,92.80
2022-12-18T02:49:39.641Z,92.80
2022-12-18T02:52:29.672Z,92.80
2022-12-18T02:55:19.860Z,92.80
2022-12-18T02:58:14.993Z,92.80
2022-12-18T03:00:54.174Z,92.80
2022-12-18T03:03:31.101Z,92.80
2022-12-18T03:06:16.100Z,93.20
2022-12-18T03:08:48.262Z,92.90
2022-12-18T03:11:16.236Z,92.90
2022-12-18T03:14:04.929Z,92.80
2022-12-18T03:16:34.996Z,92.80
2022-12-18T03:19:23.211Z,92.80
2022-12-18T03:21:56.649Z,92.60
2022-12-18T03:24:25.180Z,93.00
2022-12-18T03:27:02.801Z,92.70
2022-12-18T03:29:36.965Z,92.70
2022-12-18T03:32:10.578Z,92.70
2022-12-18T03:34:40.811Z,92.60
2022-12-18T03:37:07.921Z,92.60
2022-12-18T03:39:35.886Z,92.40
2022-12-18T03:42:16.859Z,92.40
2022-12-18T03:45:04.921Z,92.50
2022-12-18T03:47:53.472Z,92.40
2022-12-18T03:50:32.071Z,92.40
2022-12-18T03:53:09.413Z,92.40
2022-12-18T03:55:36.983Z,92.70
2022-12-18T03:58:05.869Z,92.30
2022-12-18T04:00:33.957Z,92.30
2022-12-18T04:03:02.886Z,92.30
2022-12-18T04:05:31.093Z,92.30
2022-12-18T04:07:58.248Z,92.30
2022-12-18T04:10:24.943Z,92.30
2022-12-18T04:12:51.713Z,92.30
2022-12-18T04:15:18.644Z,92.30
2022-12-18T04:17:50.037Z,92.30
2022-12-18T04:20:17.555Z,92.30
2022-12-18T04:22:44.300Z,92.30
2022-12-18T04:25:14.421Z,92.30
2022-12-18T04:27:41.164Z,92.30
2022-12-18T04:30:08.530Z,92.20
2022-12-18T04:32:36.023Z,92.30
2022-12-18T04:35:05.052Z,92.40
2022-12-18T04:37:31.766Z,92.40
2022-12-18T04:39:58.511Z,92.30
2022-12-18T04:42:25.217Z,92.30
2022-12-18T04:44:51.904Z,92.30
2022-12-18T04:47:18.583Z,92.30
2022-12-18T04:49:45.320Z,92.30
2022-12-18T04:52:12.000Z,92.40
2022-12-18T04:54:38.664Z,92.30
2022-12-18T04:57:05.321Z,92.30
2022-12-18T04:59:32.037Z,92.30
2022-12-18T05:01:58.762Z,92.30
2022-12-18T05:04:25.555Z,92.30
2022-12-18T05:06:52.240Z,92.30
2022-12-18T05:09:18.940Z,92.30
2022-12-18T05:11:47.582Z,92.20
2022-12-18T05:14:14.382Z,92.20
2022-12-18T05:16:41.253Z,92.30
2022-12-18T05:19:07.995Z,92.20
2022-12-18T05:21:34.664Z,92.20
2022-12-18T05:24:01.363Z,92.20
2022-12-18T05:26:28.051Z,92.20
2022-12-18T05:28:57.586Z,92.20
2022-12-18T05:31:24.351Z,92.20
2022-12-18T05:33:51.126Z,92.10
2022-12-18T05:36:17.912Z,92.20
2022-12-18T05:38:44.607Z,92.20
2022-12-18T05:41:11.467Z,92.20
2022-12-18T05:43:41.879Z,92.20
2022-12-18T05:46:13.974Z,92.10
2022-12-18T05:48:40.963Z,92.00
2022-12-18T05:51:13.952Z,92.10
2022-12-18T05:53:41.336Z,92.10
2022-12-18T05:56:11.921Z,92.00
2022-12-18T05:58:38.694Z,92.00
2022-12-18T06:01:19.821Z,92.00
2022-12-18T06:03:47.264Z,92.00
2022-12-18T06:06:26.255Z,92.00
2022-12-18T06:08:53.926Z,92.00
2022-12-18T06:11:23.611Z,92.00
2022-12-18T06:13:56.326Z,92.10
2022-12-18T06:16:25.337Z,92.00
2022-12-18T06:18:52.127Z,92.00
2022-12-18T06:21:18.886Z,92.10
2022-12-18T06:23:45.576Z,92.10
2022-12-18T06:26:13.980Z,92.10
2022-12-18T06:28:40.764Z,92.10
2022-12-18T06:31:08.240Z,92.10
2022-12-18T06:33:35.529Z,92.10
2022-12-18T06:36:03.882Z,92.10
2022-12-18T06:38:30.579Z,92.00
2022-12-18T06:40:57.538Z,92.10
2022-12-18T06:43:24.272Z,92.10
2022-12-18T06:45:53.654Z,92.10
2022-12-18T06:48:21.016Z,92.10
2022-12-18T06:50:48.143Z,92.10
2022-12-18T06:53:14.888Z,92.10
2022-12-18T06:55:41.613Z,92.10
2022-12-18T06:58:08.580Z,92.10
2022-12-18T07:00:37.392Z,92.10
2022-12-18T07:03:04.238Z,92.00
2022-12-18T07:05:31.022Z,92.00
2022-12-18T07:07:57.772Z,92.00
2022-12-18T07:10:24.506Z,92.00
2022-12-18T07:12:51.157Z,92.10
2022-12-18T07:15:17.868Z,92.10
2022-12-18T07:17:44.531Z,92.10
2022-12-18T07:20:11.495Z,92.10
2022-12-18T07:22:38.427Z,92.10
2022-12-18T07:25:05.722Z,92.10
2022-12-18T07:27:32.384Z,92.10
2022-12-18T07:29:59.355Z,92.00
2022-12-18T07:32:26.102Z,92.10
2022-12-18T07:34:52.768Z,92.10
2022-12-18T07:37:19.490Z,92.10
2022-12-18T07:39:46.160Z,92.10
2022-12-18T07:42:33.145Z,92.10
2022-12-18T07:45:01.325Z,92.10
2022-12-18T07:47:29.033Z,92.20
2022-12-18T07:49:56.721Z,92.20
2022-12-18T07:52:26.122Z,92.20
2022-12-18T07:54:53.179Z,92.20
2022-12-18T07:57:41.733Z,92.60
2022-12-18T08:00:07.193Z,92.30
2022-12-18T08:02:34.036Z,92.30
2022-12-18T08:05:01.534Z,92.30
2022-12-18T08:07:28.287Z,92.30
2022-12-18T08:09:54.950Z,92.30
2022-12-18T08:12:21.667Z,92.40
2022-12-18T08:14:48.340Z,92.40
2022-12-18T08:17:15.044Z,92.40
2022-12-18T08:19:41.724Z,92.40
2022-12-18T08:22:08.484Z,92.40
2022-12-18T08:24:35.324Z,92.40
2022-12-18T08:29:48.768Z,92.40
2022-12-18T08:32:15.573Z,92.40
2022-12-18T08:34:42.353Z,92.40
2022-12-18T08:37:09.036Z,92.40
2022-12-18T08:39:35.804Z,92.80
2022-12-18T08:42:21.096Z,92.40
2022-12-18T08:44:47.889Z,92.40
2022-12-18T08:47:14.620Z,92.30
2022-12-18T08:49:41.605Z,92.40
2022-12-18T08:52:08.325Z,92.30
2022-12-18T08:54:35.014Z,92.30
2022-12-18T08:57:01.792Z,92.30
2022-12-18T08:59:29.718Z,92.30
2022-12-18T09:01:56.635Z,92.30
2022-12-18T09:04:23.609Z,92.20
2022-12-18T09:06:50.277Z,92.20
2022-12-18T09:09:17.092Z,92.20
2022-12-18T09:11:43.903Z,92.20
2022-12-18T09:14:11.083Z,92.20
2022-12-18T09:16:37.874Z,92.20
2022-12-18T09:19:05.870Z,92.20
2022-12-18T09:21:36.935Z,92.10
2022-12-18T09:24:05.183Z,92.10
2022-12-18T09:26:36.055Z,92.10
2022-12-18T09:29:03.969Z,92.10
2022-12-18T09:31:30.653Z,92.10
2022-12-18T09:33:57.768Z,92.10
2022-12-18T09:36:24.645Z,92.10
2022-12-18T09:38:51.466Z,92.00
2022-12-18T09:41:48.646Z,92.00
2022-12-18T09:44:29.180Z,92.00
2022-12-18T09:47:07.359Z,92.00
2022-12-18T09:49:47.144Z,92.00
2022-12-18T09:52:42.919Z,92.00
2022-12-18T09:55:37.483Z,92.00
2022-12-18T09:58:34.128Z,92.00
2022-12-18T10:01:00.797Z,92.00
2022-12-18T10:03:27.876Z,92.00
2022-12-18T10:06:23.185Z,92.00
2022-12-18T10:09:02.147Z,92.00
2022-12-18T10:11:42.845Z,92.00
2022-12-18T10:14:49.541Z,92.00
2022-12-18T10:17:28.271Z,92.00
2022-12-18T10:20:03.824Z,91.90
2022-12-18T10:23:01.352Z,91.90
2022-12-18T10:25:46.595Z,91.90
2022-12-18T10:28:18.351Z,91.90
2022-12-18T10:30:45.147Z,91.90
2022-12-18T10:33:20.037Z,91.90
2022-12-18T10:35:49.290Z,91.80
2022-12-18T10:38:17.126Z,91.90
2022-12-18T10:40:57.706Z,91.90
2022-12-18T10:43:35.352Z,91.80
2022-12-18T10:46:11.217Z,91.90
2022-12-18T10:48:50.031Z,91.80
2022-12-18T10:51:24.253Z,91.70
2022-12-18T10:53:56.418Z,91.70
2022-12-18T10:56:24.756Z,91.70
2022-12-18T10:59:01.811Z,91.70
2022-12-18T11:01:29.513Z,91.50
2022-12-18T11:04:02.390Z,91.40
2022-12-18T11:06:30.271Z,91.50
2022-12-18T11:09:20.079Z,91.80
2022-12-18T11:11:55.303Z,91.50
2022-12-18T11:14:26.746Z,91.40
2022-12-18T11:17:24.213Z,91.50
2022-12-18T11:19:42.523Z,91.30
2022-12-18T11:22:31.322Z,91.30
2022-12-18T11:28:02.723Z,91.10
2022-12-18T11:30:30.673Z,91.20
2022-12-18T11:33:05.742Z,91.10
2022-12-18T11:35:45.300Z,91.20
2022-12-18T11:38:17.337Z,91.20
2022-12-18T11:40:48.076Z,91.00
2022-12-18T11:43:17.206Z,90.80
2022-12-18T11:45:53.697Z,90.90
2022-12-18T11:48:27.868Z,90.90
2022-12-18T11:50:57.178Z,90.90
2022-12-18T11:53:26.297Z,91.00
2022-12-18T11:56:21.935Z,90.90
2022-12-18T11:58:57.016Z,90.80
2022-12-18T12:01:43.986Z,90.60
2022-12-18T12:04:33.380Z,90.60
2022-12-18T12:07:23.398Z,90.50
2022-12-18T12:10:23.764Z,90.60
2022-12-18T12:13:13.842Z,90.70
2022-12-18T12:15:46.238Z,90.70
2022-12-18T12:18:27.694Z,90.70
2022-12-18T12:21:09.290Z,90.60
2022-12-18T12:23:47.423Z,90.50
2022-12-18T12:26:35.987Z,90.50
2022-12-18T12:29:21.444Z,90.50
2022-12-18T12:32:04.623Z,90.50
2022-12-18T12:35:01.755Z,90.40
2022-12-18T12:37:59.908Z,90.50
2022-12-18T12:43:25.640Z,89.90
2022-12-18T12:45:59.485Z,89.80
2022-12-18T12:48:43.483Z,90.20
2022-12-18T12:51:21.147Z,90.10
2022-12-18T12:53:49.063Z,90.20
2022-12-18T12:56:23.241Z,90.00
2022-12-18T12:59:20.161Z,90.20
2022-12-18T13:02:08.308Z,90.00
2022-12-18T13:04:57.422Z,90.10
2022-12-18T13:07:42.523Z,90.00
2022-12-18T13:10:32.189Z,89.60
2022-12-18T13:16:09.172Z,88.60
2022-12-18T13:18:36.557Z,89.00
2022-12-18T13:21:16.628Z,89.50
2022-12-18T13:23:43.935Z,89.70
2022-12-18T13:26:26.315Z,89.50
2022-12-18T13:28:56.961Z,89.30
2022-12-18T13:31:41.833Z,88.90
2022-12-18T13:34:28.243Z,89.60
2022-12-18T13:36:57.130Z,89.20
2022-12-18T13:39:30.250Z,89.30
2022-12-18T13:42:07.122Z,89.30
2022-12-18T13:44:40.702Z,89.40
2022-12-18T13:47:33.203Z,89.30
2022-12-18T13:50:02.738Z,89.30
2022-12-18T13:52:39.796Z,89.00
2022-12-18T13:55:15.587Z,89.00
2022-12-18T13:57:42.445Z,89.00
2022-12-18T14:00:28.937Z,89.00
2022-12-18T14:02:57.374Z,89.10
2022-12-18T14:05:30.978Z,88.90
2022-12-18T14:08:22.164Z,88.40
2022-12-18T14:10:52.150Z,88.60
2022-12-18T14:13:30.341Z,88.30
2022-12-18T14:15:58.664Z,88.60
2022-12-18T14:18:35.170Z,88.50
2022-12-18T14:21:04.675Z,88.40
2022-12-18T14:23:42.663Z,88.60
2022-12-18T14:26:29.783Z,88.50
2022-12-18T14:28:58.048Z,88.40
2022-12-18T14:31:30.934Z,88.30
2022-12-18T14:33:59.100Z,88.40
2022-12-18T14:36:28.659Z,87.90
2022-12-18T14:39:00.272Z,88.20
2022-12-18T14:41:27.648Z,88.00
2022-12-18T14:43:55.543Z,87.80
2022-12-18T14:46:46.779Z,87.90
2022-12-18T14:49:25.661Z,87.80
2022-12-18T14:51:55.469Z,87.40
2022-12-18T14:54:24.169Z,87.10
2022-12-18T14:56:58.860Z,87.40
2022-12-18T14:59:27.479Z,87.20
2022-12-18T15:02:06.246Z,86.80
2022-12-18T15:04:42.105Z,87.30
2022-12-18T15:07:16.988Z,86.70
2022-12-18T15:10:00.814Z,87.00
2022-12-18T15:13:06.450Z,86.60
2022-12-18T15:15:38.823Z,86.60
2022-12-18T15:18:08.835Z,86.60
2022-12-18T15:20:57.682Z,86.90
2022-12-18T15:23:28.700Z,86.80
2022-12-18T15:25:58.610Z,86.40
2022-12-18T15:28:33.042Z,87.50
2022-12-18T15:31:19.092Z,86.50
2022-12-18T15:34:00.482Z,86.60
2022-12-18T15:36:27.322Z,86.50
2022-12-18T15:39:01.316Z,86.10
2022-12-18T15:41:37.019Z,86.50
2022-12-18T15:44:22.031Z,86.40
2022-12-18T15:46:48.775Z,86.50
2022-12-18T15:49:15.449Z,86.30
2022-12-18T15:51:42.282Z,85.90
2022-12-18T15:54:14.067Z,86.00
2022-12-18T15:57:00.109Z,86.40
2022-12-18T15:59:27.373Z,86.30
2022-12-18T16:01:54.391Z,86.10
2022-12-18T16:04:23.163Z,86.20
2022-12-18T16:07:13.848Z,86.00
2022-12-18T16:09:37.743Z,85.90
2022-12-18T16:12:04.820Z,85.80
2022-12-18T16:14:32.926Z,85.70
2022-12-18T16:17:06.414Z,85.70
2022-12-18T16:19:33.233Z,86.00
2022-12-18T16:22:00.302Z,85.90
2022-12-18T16:24:29.200Z,86.10
2022-12-18T16:26:58.625Z,86.30
2022-12-18T16:29:28.232Z,86.30
2022-12-18T16:31:59.155Z,86.00
2022-12-18T16:34:29.621Z,85.70
2022-12-18T16:37:08.003Z,85.70
2022-12-18T16:39:35.540Z,85.80
2022-12-18T16:42:05.914Z,85.80
2022-12-18T16:44:34.009Z,85.80
2022-12-18T16:47:02.936Z,85.50
2022-12-18T16:49:30.591Z,85.40
2022-12-18T16:51:57.332Z,85.70
2022-12-18T16:54:24.475Z,85.80
2022-12-18T16:56:52.259Z,85.70
2022-12-18T16:59:19.914Z,85.70
2022-12-18T17:01:47.507Z,85.50
2022-12-18T17:04:14.789Z,85.40
2022-12-18T17:06:43.967Z,85.40
2022-12-18T17:09:16.256Z,85.50
2022-12-18T17:11:43.617Z,85.70
2022-12-18T17:14:16.416Z,85.30
2022-12-18T17:16:43.529Z,85.60
2022-12-18T17:19:16.752Z,85.40
2022-12-18T17:21:45.336Z,85.30
2022-12-18T17:24:12.133Z,85.30
2022-12-18T17:26:39.025Z,85.40
2022-12-18T17:29:06.115Z,84.90
2022-12-18T17:31:34.868Z,85.30
2022-12-18T17:34:03.507Z,85.30
2022-12-18T17:36:33.528Z,85.30
2022-12-18T17:39:01.842Z,85.40
2022-12-18T17:41:30.158Z,85.30
2022-12-18T17:44:04.089Z,85.40
2022-12-18T17:46:32.983Z,85.40
2022-12-18T17:49:01.350Z,85.10
2022-12-18T17:51:28.817Z,85.40
2022-12-18T17:53:55.545Z,85.50
2022-12-18T17:56:23.581Z,85.70
2022-12-18T17:58:50.691Z,85.80
2022-12-18T18:01:21.285Z,85.30
2022-12-18T18:03:50.973Z,85.60
2022-12-18T18:06:20.482Z,85.50
2022-12-18T18:08:47.390Z,85.20
2022-12-18T18:11:36.009Z,85.30
2022-12-18T18:14:05.251Z,85.20
2022-12-18T18:17:00.779Z,85.30
2022-12-18T18:19:32.459Z,85.50
2022-12-18T18:21:59.171Z,85.30
2022-12-18T18:24:26.252Z,85.50
2022-12-18T18:26:53.270Z,85.50
2022-12-18T18:29:23.704Z,85.70
2022-12-18T18:31:52.913Z,85.30
2022-12-18T18:34:23.416Z,85.50
2022-12-18T18:36:50.631Z,85.60
2022-12-18T18:39:17.621Z,85.30
2022-12-18T18:41:48.212Z,85.10
2022-12-18T18:44:16.190Z,85.10
2022-12-18T18:46:43.168Z,85.20
2022-12-18T18:49:10.251Z,85.30
2022-12-18T18:51:36.982Z,85.50
2022-12-18T18:54:03.854Z,85.50
2022-12-18T18:59:18.428Z,85.30
2022-12-18T19:01:45.452Z,85.40
2022-12-18T19:04:12.282Z,85.20
2022-12-18T19:06:39.659Z,85.30
2022-12-18T19:09:07.456Z,85.50
2022-12-18T19:11:53.237Z,85.40
2022-12-18T19:14:20.323Z,85.30
2022-12-18T19:16:47.081Z,85.10
2022-12-18T19:19:14.580Z,85.30
2022-12-18T19:21:41.365Z,84.80
2022-12-18T19:24:09.319Z,84.60
2022-12-18T19:26:37.639Z,84.60
2022-12-18T19:29:07.530Z,84.80
2022-12-18T19:31:36.980Z,84.80
2022-12-18T19:34:06.888Z,84.70
2022-12-18T19:36:36.336Z,85.10
2022-12-18T19:39:09.633Z,84.80
2022-12-18T19:41:36.469Z,85.40
2022-12-18T19:44:08.078Z,85.20
2022-12-18T19:46:35.729Z,86.10
2022-12-18T19:49:02.797Z,86.50
2022-12-18T19:51:31.366Z,86.90
2022-12-18T19:54:01.252Z,87.30
2022-12-18T19:56:29.802Z,87.70
2022-12-18T19:58:57.068Z,87.60
2022-12-18T20:01:25.171Z,88.00
2022-12-18T20:03:54.666Z,88.10
2022-12-18T20:06:29.497Z,88.50
2022-12-18T20:09:04.548Z,88.80
2022-12-18T20:11:32.737Z,89.10
2022-12-18T20:13:59.516Z,89.20
2022-12-18T20:16:26.416Z,89.50
2022-12-18T20:18:53.684Z,89.60
2022-12-18T20:21:20.367Z,89.80
2022-12-18T20:23:47.143Z,90.00
2022-12-18T20:26:14.020Z,90.10
2022-12-18T20:28:40.966Z,90.20
2022-12-18T20:31:10.346Z,90.30
2022-12-18T20:33:37.794Z,90.30
2022-12-18T20:36:07.276Z,90.20
2022-12-18T20:38:35.315Z,90.40
2022-12-18T20:41:06.947Z,90.50
2022-12-18T20:43:33.693Z,90.60
2022-12-18T20:46:04.700Z,90.70
2022-12-18T20:48:32.586Z,91.10
2022-12-18T20:51:05.751Z,90.80
2022-12-18T20:53:33.360Z,90.90
2022-12-18T20:56:00.393Z,91.00
2022-12-18T20:58:27.046Z,91.00
2022-12-18T21:01:09.281Z,91.10
2022-12-18T21:03:36.412Z,91.20
2022-12-18T21:06:03.913Z,91.30
2022-12-18T21:08:30.763Z,91.30
2022-12-18T21:11:31.649Z,91.30
2022-12-18T21:13:58.513Z,91.40
2022-12-18T21:16:25.331Z,91.50
2022-12-18T21:18:54.513Z,91.70
2022-12-18T21:21:26.604Z,91.70
2022-12-18T21:23:54.147Z,91.80
2022-12-18T21:26:23.888Z,91.90
2022-12-18T21:28:55.793Z,92.00
2022-12-18T21:31:24.553Z,92.00
2022-12-18T21:33:51.912Z,92.20
2022-12-18T21:36:21.477Z,92.60
2022-12-18T21:38:48.256Z,92.30
2022-12-18T21:41:38.805Z,92.30
2022-12-18T21:44:11.937Z,92.40
2022-12-18T21:46:40.855Z,92.50
2022-12-18T21:49:09.062Z,92.60
2022-12-18T21:51:36.358Z,92.70
2022-12-18T21:54:03.478Z,92.70
2022-12-18T21:56:54.878Z,92.70
2022-12-18T21:59:36.579Z,92.80
2022-12-18T22:02:07.813Z,92.80
2022-12-18T22:04:34.705Z,92.90
2022-12-18T22:07:02.575Z,92.90
2022-12-18T22:09:29.285Z,93.00
2022-12-18T22:11:56.006Z,93.10
2022-12-18T22:14:23.373Z,93.10
2022-12-18T22:16:51.117Z,93.20
2022-12-18T22:19:19.690Z,93.30
2022-12-18T22:21:48.699Z,93.30
2022-12-18T22:24:21.423Z,93.70
2022-12-18T22:26:49.168Z,93.40
2022-12-18T22:29:37.090Z,93.40
2022-12-18T22:32:05.597Z,93.40
2022-12-18T22:34:36.597Z,93.50
2022-12-18T22:37:03.570Z,93.50
2022-12-18T22:39:30.671Z,93.50
2022-12-18T22:41:58.154Z,93.60
2022-12-18T22:44:25.234Z,93.60
2022-12-18T22:47:06.035Z,94.00
2022-12-18T22:49:34.837Z,93.70
2022-12-18T22:52:06.344Z,93.70
2022-12-18T22:54:33.265Z,93.80
2022-12-18T22:56:59.992Z,93.80
2022-12-18T22:59:26.727Z,93.80
2022-12-18T23:01:58.641Z,93.90
2022-12-18T23:04:29.092Z,93.90
2022-12-18T23:07:04.609Z,93.90
2022-12-18T23:09:31.399Z,93.90
2022-12-18T23:11:58.136Z,94.00
2022-12-18T23:14:24.811Z,94.00
2022-12-18T23:16:51.491Z,94.00
2022-12-18T23:19:20.187Z,94.00
2022-12-18T23:21:46.994Z,94.10
2022-12-18T23:24:13.740Z,94.00
2022-12-18T23:26:40.491Z,94.10
2022-12-18T23:29:08.031Z,94.10
2022-12-18T23:31:39.474Z,94.10
2022-12-18T23:34:07.504Z,94.20
2022-12-18T23:36:45.308Z,94.20
2022-12-18T23:39:17.471Z,94.20
2022-12-18T23:41:57.761Z,94.30
2022-12-18T23:44:24.559Z,94.30
2022-12-18T23:46:51.285Z,94.30
2022-12-18T23:49:17.992Z,94.30
2022-12-18T23:51:45.625Z,94.40
2022-12-18T23:54:12.346Z,94.40
2022-12-18T23:56:39.028Z,94.40
2022-12-18T23:59:05.751Z,94.50
